Dera Ismail Khan Weather



Dera Ismail Khan's Current Weather

Temprature 18.11o clear sky

clear sky

Rain: 0 %

Min Temprature18.11o
Max Temprature18.11o
Humidity28
Wind Speed2.69 m/h
Sun Rise06:29:31
Sun Set17:30:38
Current Time: 28-Oct-2020 04:54:13
Lat/Lon: 31.83, 70.9




Dera Ismail Khan's Geo Location



Dera Ismail Khan's Weather Forecast

Time Overall Temp Min Temp Max Temp Humidity Wind Speed Rain
28-Oct-2020 (Wed)
05:00:00 clear sky 17.860 17.860 18.110 28 2.69 m/h 0 %
08:00:00 clear sky 20.750 20.750 21.610 23 2.41 m/h 0 %
11:00:00 clear sky 27.940 27.940 28.640 14 2.82 m/h 0 %
14:00:00 clear sky 31.720 31.720 31.830 12 2.96 m/h 0 %
17:00:00 clear sky 27.790 27.790 27.790 15 2.17 m/h 0 %
20:00:00 clear sky 20.830 20.830 20.830 23 1.65 m/h 0 %
23:00:00 clear sky 19.640 19.640 19.640 24 1.52 m/h 0 %
29-Oct-2020 (Thu)
02:00:00 clear sky 19.390 19.390 19.390 25 2.38 m/h 0 %
05:00:00 clear sky 17.570 17.570 17.570 28 2.28 m/h 0 %
08:00:00 clear sky 21.330 21.330 21.330 22 2.28 m/h 0 %
11:00:00 clear sky 28.700 28.700 28.700 14 2.13 m/h 0 %
14:00:00 clear sky 31.820 31.820 31.820 12 2.95 m/h 0 %
17:00:00 clear sky 27.580 27.580 27.580 15 2.13 m/h 0 %
20:00:00 clear sky 20.170 20.170 20.170 24 1.11 m/h 0 %
23:00:00 clear sky 19.680 19.680 19.680 25 1.4 m/h 0 %
30-Oct-2020 (Fri)
02:00:00 clear sky 20.600 20.600 20.600 23 3 m/h 0 %
05:00:00 clear sky 18.810 18.810 18.810 26 2.2 m/h 0 %
08:00:00 clear sky 23.730 23.730 23.730 19 0.36 m/h 0 %
11:00:00 clear sky 30.240 30.240 30.240 13 1.15 m/h 0 %
14:00:00 clear sky 32.390 32.390 32.390 11 1.73 m/h 0 %
17:00:00 clear sky 27.840 27.840 27.840 14 2.05 m/h 0 %
20:00:00 clear sky 21.870 21.870 21.870 20 2.37 m/h 0 %
23:00:00 clear sky 18.020 18.020 18.020 26 0.59 m/h 0 %
31-Oct-2020 (Sat)
02:00:00 clear sky 17.820 17.820 17.820 26 1.34 m/h 0 %
05:00:00 clear sky 16.780 16.780 16.780 28 1.19 m/h 0 %
08:00:00 clear sky 23.980 23.980 23.980 18 1.55 m/h 0 %
11:00:00 clear sky 30.650 30.650 30.650 12 1.6 m/h 0 %
14:00:00 clear sky 32.930 32.930 32.930 11 0.78 m/h 0 %
17:00:00 clear sky 25.820 25.820 25.820 17 0.07 m/h 0 %
20:00:00 clear sky 21.030 21.030 21.030 22 1.34 m/h 0 %
23:00:00 clear sky 18.810 18.810 18.810 25 1.48 m/h 0 %
01-Nov-2020 (Sun)
02:00:00 clear sky 17.090 17.090 17.090 28 0.96 m/h 0 %
05:00:00 clear sky 16.430 16.430 16.430 29 1.27 m/h 0 %
08:00:00 clear sky 23.530 23.530 23.530 18 1.24 m/h 0 %
11:00:00 clear sky 30.790 30.790 30.790 11 2.46 m/h 0 %
14:00:00 clear sky 32.910 32.910 32.910 9 2.06 m/h 0 %
17:00:00 clear sky 26.150 26.150 26.150 14 1.6 m/h 0 %
20:00:00 clear sky 19.800 19.800 19.800 21 1.44 m/h 0 %
23:00:00 clear sky 19.840 19.840 19.840 19 2.05 m/h 0 %
02-Nov-2020 (Mon)
02:00:00 clear sky 18.440 18.440 18.440 21 1.84 m/h 0 %


Dera Ismail Khan's Tourist Spots

Historical Places in Dera Ismail Khan

Famous Cities (60)